sensor_id;sensor_type;location;lat;lon;timestamp;P1;durP1;ratioP1;P2;durP2;ratioP2
54201;SDS011;40108;53.152;5.844;2024-03-22T00:00:14;54.58;;;34.03;;
54201;SDS011;40108;53.152;5.844;2024-03-22T00:02:40;56.95;;;35.08;;
54201;SDS011;40108;53.152;5.844;2024-03-22T00:05:06;53.00;;;32.95;;
54201;SDS011;40108;53.152;5.844;2024-03-22T00:07:32;52.88;;;34.17;;
54201;SDS011;40108;53.152;5.844;2024-03-22T00:09:57;54.58;;;34.88;;
54201;SDS011;40108;53.152;5.844;2024-03-22T00:12:23;56.25;;;35.83;;
54201;SDS011;40108;53.152;5.844;2024-03-22T00:14:49;57.60;;;34.72;;
54201;SDS011;40108;53.152;5.844;2024-03-22T00:17:16;67.55;;;37.38;;
54201;SDS011;40108;53.152;5.844;2024-03-22T00:19:42;60.88;;;35.20;;
54201;SDS011;40108;53.152;5.844;2024-03-22T00:22:07;60.40;;;34.58;;
54201;SDS011;40108;53.152;5.844;2024-03-22T00:24:34;68.82;;;37.55;;
54201;SDS011;40108;53.152;5.844;2024-03-22T00:26:59;70.68;;;38.42;;
54201;SDS011;40108;53.152;5.844;2024-03-22T00:29:25;68.78;;;37.65;;
54201;SDS011;40108;53.152;5.844;2024-03-22T00:31:51;71.05;;;38.60;;
54201;SDS011;40108;53.152;5.844;2024-03-22T00:34:17;73.97;;;38.55;;
54201;SDS011;40108;53.152;5.844;2024-03-22T00:36:44;75.78;;;40.10;;
54201;SDS011;40108;53.152;5.844;2024-03-22T00:39:11;78.38;;;38.85;;
54201;SDS011;40108;53.152;5.844;2024-03-22T00:41:37;79.00;;;39.38;;
54201;SDS011;40108;53.152;5.844;2024-03-22T00:44:03;84.97;;;41.45;;
54201;SDS011;40108;53.152;5.844;2024-03-22T00:46:29;91.53;;;43.00;;
54201;SDS011;40108;53.152;5.844;2024-03-22T00:48:54;85.90;;;43.08;;
54201;SDS011;40108;53.152;5.844;2024-03-22T00:51:20;90.47;;;42.75;;
54201;SDS011;40108;53.152;5.844;2024-03-22T00:53:46;86.60;;;42.28;;
54201;SDS011;40108;53.152;5.844;2024-03-22T00:56:11;84.00;;;43.45;;
54201;SDS011;40108;53.152;5.844;2024-03-22T00:58:37;85.15;;;43.28;;
54201;SDS011;40108;53.152;5.844;2024-03-22T01:01:03;91.57;;;43.28;;
54201;SDS011;40108;53.152;5.844;2024-03-22T01:03:28;84.88;;;42.47;;
54201;SDS011;40108;53.152;5.844;2024-03-22T01:05:54;83.70;;;43.83;;
54201;SDS011;40108;53.152;5.844;2024-03-22T01:08:21;85.32;;;43.13;;
54201;SDS011;40108;53.152;5.844;2024-03-22T01:10:47;87.95;;;43.00;;
54201;SDS011;40108;53.152;5.844;2024-03-22T01:13:13;87.13;;;43.40;;
54201;SDS011;40108;53.152;5.844;2024-03-22T01:15:38;88.85;;;44.22;;
54201;SDS011;40108;53.152;5.844;2024-03-22T01:18:04;90.38;;;43.90;;
54201;SDS011;40108;53.152;5.844;2024-03-22T01:20:30;89.95;;;44.58;;
54201;SDS011;40108;53.152;5.844;2024-03-22T01:22:55;94.03;;;44.70;;
54201;SDS011;40108;53.152;5.844;2024-03-22T01:25:21;90.63;;;42.78;;
54201;SDS011;40108;53.152;5.844;2024-03-22T01:27:47;90.05;;;43.03;;
54201;SDS011;40108;53.152;5.844;2024-03-22T01:30:12;94.85;;;44.40;;
54201;SDS011;40108;53.152;5.844;2024-03-22T01:32:38;90.18;;;44.60;;
54201;SDS011;40108;53.152;5.844;2024-03-22T01:35:04;101.00;;;44.47;;
54201;SDS011;40108;53.152;5.844;2024-03-22T01:37:30;94.43;;;43.33;;
54201;SDS011;40108;53.152;5.844;2024-03-22T01:39:55;93.63;;;44.40;;
54201;SDS011;40108;53.152;5.844;2024-03-22T01:42:21;89.60;;;44.30;;
54201;SDS011;40108;53.152;5.844;2024-03-22T01:44:48;90.22;;;43.15;;
54201;SDS011;40108;53.152;5.844;2024-03-22T01:47:14;97.60;;;42.25;;
54201;SDS011;40108;53.152;5.844;2024-03-22T01:49:41;90.25;;;39.35;;
54201;SDS011;40108;53.152;5.844;2024-03-22T01:52:07;92.25;;;44.13;;
54201;SDS011;40108;53.152;5.844;2024-03-22T01:54:32;86.25;;;41.08;;
54201;SDS011;40108;53.152;5.844;2024-03-22T01:56:58;96.65;;;43.42;;
54201;SDS011;40108;53.152;5.844;2024-03-22T01:59:24;94.50;;;43.53;;
54201;SDS011;40108;53.152;5.844;2024-03-22T02:01:51;91.68;;;41.65;;
54201;SDS011;40108;53.152;5.844;2024-03-22T02:04:16;92.40;;;42.70;;
54201;SDS011;40108;53.152;5.844;2024-03-22T02:06:42;90.30;;;42.72;;
54201;SDS011;40108;53.152;5.844;2024-03-22T02:09:08;89.45;;;42.88;;
54201;SDS011;40108;53.152;5.844;2024-03-22T02:11:34;90.63;;;43.20;;
54201;SDS011;40108;53.152;5.844;2024-03-22T02:14:03;93.97;;;43.10;;
54201;SDS011;40108;53.152;5.844;2024-03-22T02:16:29;89.28;;;42.53;;
54201;SDS011;40108;53.152;5.844;2024-03-22T02:18:55;91.60;;;43.15;;
54201;SDS011;40108;53.152;5.844;2024-03-22T02:21:21;89.90;;;42.38;;
54201;SDS011;40108;53.152;5.844;2024-03-22T02:23:46;84.72;;;42.00;;
54201;SDS011;40108;53.152;5.844;2024-03-22T02:26:12;92.43;;;43.65;;
54201;SDS011;40108;53.152;5.844;2024-03-22T02:28:37;90.82;;;42.47;;
54201;SDS011;40108;53.152;5.844;2024-03-22T02:31:03;94.75;;;43.67;;
54201;SDS011;40108;53.152;5.844;2024-03-22T02:33:30;90.47;;;42.15;;
54201;SDS011;40108;53.152;5.844;2024-03-22T02:35:56;94.95;;;43.90;;
54201;SDS011;40108;53.152;5.844;2024-03-22T02:38:22;90.10;;;42.33;;
54201;SDS011;40108;53.152;5.844;2024-03-22T02:40:48;89.60;;;43.08;;
54201;SDS011;40108;53.152;5.844;2024-03-22T02:43:15;95.95;;;42.90;;
54201;SDS011;40108;53.152;5.844;2024-03-22T02:45:43;96.80;;;43.67;;
54201;SDS011;40108;53.152;5.844;2024-03-22T02:48:10;95.55;;;42.97;;
54201;SDS011;40108;53.152;5.844;2024-03-22T02:50:36;99.60;;;42.65;;
54201;SDS011;40108;53.152;5.844;2024-03-22T02:53:03;88.43;;;42.00;;
54201;SDS011;40108;53.152;5.844;2024-03-22T02:55:30;87.45;;;41.08;;
54201;SDS011;40108;53.152;5.844;2024-03-22T02:57:56;97.50;;;41.92;;
54201;SDS011;40108;53.152;5.844;2024-03-22T03:00:22;102.93;;;43.25;;
54201;SDS011;40108;53.152;5.844;2024-03-22T03:02:49;92.60;;;42.55;;
54201;SDS011;40108;53.152;5.844;2024-03-22T03:05:15;94.13;;;41.63;;
54201;SDS011;40108;53.152;5.844;2024-03-22T03:07:40;97.18;;;40.38;;
54201;SDS011;40108;53.152;5.844;2024-03-22T03:10:06;93.45;;;42.08;;
54201;SDS011;40108;53.152;5.844;2024-03-22T03:12:32;94.82;;;42.53;;
54201;SDS011;40108;53.152;5.844;2024-03-22T03:14:58;92.82;;;42.63;;
54201;SDS011;40108;53.152;5.844;2024-03-22T03:17:24;92.13;;;41.10;;
54201;SDS011;40108;53.152;5.844;2024-03-22T03:19:49;92.03;;;40.78;;
54201;SDS011;40108;53.152;5.844;2024-03-22T03:22:15;92.53;;;41.42;;
54201;SDS011;40108;53.152;5.844;2024-03-22T03:24:40;87.45;;;39.70;;
54201;SDS011;40108;53.152;5.844;2024-03-22T03:27:06;94.85;;;41.17;;
54201;SDS011;40108;53.152;5.844;2024-03-22T03:29:32;81.70;;;38.80;;
54201;SDS011;40108;53.152;5.844;2024-03-22T03:31:58;88.10;;;38.80;;
54201;SDS011;40108;53.152;5.844;2024-03-22T03:34:23;94.80;;;39.00;;
54201;SDS011;40108;53.152;5.844;2024-03-22T03:36:49;87.60;;;39.55;;
54201;SDS011;40108;53.152;5.844;2024-03-22T03:39:15;91.20;;;37.78;;
54201;SDS011;40108;53.152;5.844;2024-03-22T03:41:40;86.85;;;38.13;;
54201;SDS011;40108;53.152;5.844;2024-03-22T03:44:06;88.30;;;37.88;;
54201;SDS011;40108;53.152;5.844;2024-03-22T03:46:32;83.55;;;37.72;;
54201;SDS011;40108;53.152;5.844;2024-03-22T03:48:58;80.55;;;36.55;;
54201;SDS011;40108;53.152;5.844;2024-03-22T03:51:24;89.53;;;37.70;;
54201;SDS011;40108;53.152;5.844;2024-03-22T03:53:49;86.43;;;37.28;;
54201;SDS011;40108;53.152;5.844;2024-03-22T03:56:15;84.25;;;37.35;;
54201;SDS011;40108;53.152;5.844;2024-03-22T03:58:41;82.20;;;34.92;;
54201;SDS011;40108;53.152;5.844;2024-03-22T04:01:06;86.32;;;35.33;;
54201;SDS011;40108;53.152;5.844;2024-03-22T04:03:32;87.20;;;36.58;;
54201;SDS011;40108;53.152;5.844;2024-03-22T04:05:58;85.13;;;37.03;;
54201;SDS011;40108;53.152;5.844;2024-03-22T04:08:25;84.55;;;37.33;;
54201;SDS011;40108;53.152;5.844;2024-03-22T04:10:52;77.93;;;35.58;;
54201;SDS011;40108;53.152;5.844;2024-03-22T04:13:24;77.40;;;34.95;;
54201;SDS011;40108;53.152;5.844;2024-03-22T04:15:50;81.03;;;36.53;;
54201;SDS011;40108;53.152;5.844;2024-03-22T04:18:16;80.45;;;36.17;;
54201;SDS011;40108;53.152;5.844;2024-03-22T04:20:42;81.85;;;35.03;;
54201;SDS011;40108;53.152;5.844;2024-03-22T04:23:10;76.50;;;33.55;;
54201;SDS011;40108;53.152;5.844;2024-03-22T04:25:36;86.00;;;34.95;;
54201;SDS011;40108;53.152;5.844;2024-03-22T04:28:02;83.82;;;33.78;;
54201;SDS011;40108;53.152;5.844;2024-03-22T04:30:27;74.28;;;33.00;;
54201;SDS011;40108;53.152;5.844;2024-03-22T04:32:53;78.88;;;32.17;;
54201;SDS011;40108;53.152;5.844;2024-03-22T04:35:19;68.93;;;31.13;;
54201;SDS011;40108;53.152;5.844;2024-03-22T04:37:44;69.72;;;28.95;;
54201;SDS011;40108;53.152;5.844;2024-03-22T04:40:10;74.70;;;31.73;;
54201;SDS011;40108;53.152;5.844;2024-03-22T04:42:36;73.78;;;31.30;;
54201;SDS011;40108;53.152;5.844;2024-03-22T04:45:02;75.63;;;30.40;;
54201;SDS011;40108;53.152;5.844;2024-03-22T04:47:28;67.25;;;27.60;;
54201;SDS011;40108;53.152;5.844;2024-03-22T04:49:53;63.72;;;27.55;;
54201;SDS011;40108;53.152;5.844;2024-03-22T04:52:20;73.38;;;27.08;;
54201;SDS011;40108;53.152;5.844;2024-03-22T04:54:45;67.00;;;27.70;;
54201;SDS011;40108;53.152;5.844;2024-03-22T04:57:12;66.63;;;25.95;;
54201;SDS011;40108;53.152;5.844;2024-03-22T04:59:38;56.95;;;25.50;;
54201;SDS011;40108;53.152;5.844;2024-03-22T05:02:04;59.30;;;25.25;;
54201;SDS011;40108;53.152;5.844;2024-03-22T05:04:30;66.18;;;24.33;;
54201;SDS011;40108;53.152;5.844;2024-03-22T05:06:55;64.75;;;24.67;;
54201;SDS011;40108;53.152;5.844;2024-03-22T05:09:21;54.03;;;22.48;;
54201;SDS011;40108;53.152;5.844;2024-03-22T05:11:46;64.95;;;22.85;;
54201;SDS011;40108;53.152;5.844;2024-03-22T05:14:15;57.25;;;22.70;;
54201;SDS011;40108;53.152;5.844;2024-03-22T05:16:41;64.60;;;24.10;;
54201;SDS011;40108;53.152;5.844;2024-03-22T05:19:07;60.20;;;23.75;;
54201;SDS011;40108;53.152;5.844;2024-03-22T05:21:33;62.03;;;23.25;;
54201;SDS011;40108;53.152;5.844;2024-03-22T05:23:59;62.55;;;23.42;;
54201;SDS011;40108;53.152;5.844;2024-03-22T05:26:24;57.42;;;24.17;;
54201;SDS011;40108;53.152;5.844;2024-03-22T05:28:50;58.92;;;21.92;;
54201;SDS011;40108;53.152;5.844;2024-03-22T05:31:16;53.45;;;22.13;;
54201;SDS011;40108;53.152;5.844;2024-03-22T05:33:41;52.10;;;22.20;;
54201;SDS011;40108;53.152;5.844;2024-03-22T05:36:07;61.55;;;21.60;;
54201;SDS011;40108;53.152;5.844;2024-03-22T05:38:33;57.50;;;20.60;;
54201;SDS011;40108;53.152;5.844;2024-03-22T05:41:03;55.28;;;21.27;;
54201;SDS011;40108;53.152;5.844;2024-03-22T05:43:29;50.97;;;20.95;;
54201;SDS011;40108;53.152;5.844;2024-03-22T05:45:54;53.92;;;20.83;;
54201;SDS011;40108;53.152;5.844;2024-03-22T05:48:20;51.00;;;21.65;;
54201;SDS011;40108;53.152;5.844;2024-03-22T05:50:46;52.22;;;20.10;;
54201;SDS011;40108;53.152;5.844;2024-03-22T05:53:11;51.58;;;20.00;;
54201;SDS011;40108;53.152;5.844;2024-03-22T05:55:37;46.92;;;19.35;;
54201;SDS011;40108;53.152;5.844;2024-03-22T05:58:03;47.95;;;20.15;;
54201;SDS011;40108;53.152;5.844;2024-03-22T06:00:29;49.17;;;19.77;;
54201;SDS011;40108;53.152;5.844;2024-03-22T06:02:55;39.33;;;18.83;;
54201;SDS011;40108;53.152;5.844;2024-03-22T06:05:21;45.95;;;19.38;;
54201;SDS011;40108;53.152;5.844;2024-03-22T06:07:47;40.65;;;19.35;;
54201;SDS011;40108;53.152;5.844;2024-03-22T06:10:12;48.10;;;19.00;;
54201;SDS011;40108;53.152;5.844;2024-03-22T06:12:38;47.08;;;18.55;;
54201;SDS011;40108;53.152;5.844;2024-03-22T06:15:04;42.25;;;18.13;;
54201;SDS011;40108;53.152;5.844;2024-03-22T06:17:31;46.78;;;18.50;;
54201;SDS011;40108;53.152;5.844;2024-03-22T06:19:58;39.38;;;17.42;;
54201;SDS011;40108;53.152;5.844;2024-03-22T06:22:25;39.22;;;17.75;;
54201;SDS011;40108;53.152;5.844;2024-03-22T06:24:51;39.03;;;17.42;;
54201;SDS011;40108;53.152;5.844;2024-03-22T06:27:16;37.47;;;17.95;;
54201;SDS011;40108;53.152;5.844;2024-03-22T06:29:42;45.95;;;18.20;;
54201;SDS011;40108;53.152;5.844;2024-03-22T06:32:08;41.65;;;18.42;;
54201;SDS011;40108;53.152;5.844;2024-03-22T06:34:33;43.78;;;18.75;;
54201;SDS011;40108;53.152;5.844;2024-03-22T06:36:59;43.60;;;18.90;;
54201;SDS011;40108;53.152;5.844;2024-03-22T06:39:25;42.45;;;19.35;;
54201;SDS011;40108;53.152;5.844;2024-03-22T06:41:51;45.63;;;21.17;;
54201;SDS011;40108;53.152;5.844;2024-03-22T06:44:16;48.97;;;19.90;;
54201;SDS011;40108;53.152;5.844;2024-03-22T06:46:42;42.00;;;20.90;;
54201;SDS011;40108;53.152;5.844;2024-03-22T06:49:08;50.70;;;20.15;;
54201;SDS011;40108;53.152;5.844;2024-03-22T06:51:33;51.58;;;20.20;;
54201;SDS011;40108;53.152;5.844;2024-03-22T06:53:59;52.78;;;21.45;;
54201;SDS011;40108;53.152;5.844;2024-03-22T06:56:25;55.65;;;21.73;;
54201;SDS011;40108;53.152;5.844;2024-03-22T06:58:51;51.38;;;22.67;;
54201;SDS011;40108;53.152;5.844;2024-03-22T07:01:16;51.00;;;21.17;;
54201;SDS011;40108;53.152;5.844;2024-03-22T07:03:42;51.25;;;21.40;;
54201;SDS011;40108;53.152;5.844;2024-03-22T07:06:10;52.75;;;22.25;;
54201;SDS011;40108;53.152;5.844;2024-03-22T07:08:36;51.92;;;22.45;;
54201;SDS011;40108;53.152;5.844;2024-03-22T07:11:05;62.15;;;23.42;;
54201;SDS011;40108;53.152;5.844;2024-03-22T07:13:31;61.20;;;23.67;;
54201;SDS011;40108;53.152;5.844;2024-03-22T07:15:57;53.67;;;23.73;;
54201;SDS011;40108;53.152;5.844;2024-03-22T07:18:23;62.35;;;24.10;;
54201;SDS011;40108;53.152;5.844;2024-03-22T07:20:48;67.72;;;24.52;;
54201;SDS011;40108;53.152;5.844;2024-03-22T07:23:14;63.17;;;24.83;;
54201;SDS011;40108;53.152;5.844;2024-03-22T07:25:39;62.40;;;25.10;;
54201;SDS011;40108;53.152;5.844;2024-03-22T07:28:07;56.22;;;23.63;;
54201;SDS011;40108;53.152;5.844;2024-03-22T07:30:33;64.97;;;26.00;;
54201;SDS011;40108;53.152;5.844;2024-03-22T07:33:00;64.30;;;25.90;;
54201;SDS011;40108;53.152;5.844;2024-03-22T07:35:26;58.47;;;24.35;;
54201;SDS011;40108;53.152;5.844;2024-03-22T07:37:52;52.22;;;24.20;;
54201;SDS011;40108;53.152;5.844;2024-03-22T07:40:18;58.95;;;24.85;;
54201;SDS011;40108;53.152;5.844;2024-03-22T07:42:45;53.22;;;23.95;;
54201;SDS011;40108;53.152;5.844;2024-03-22T07:45:11;50.42;;;23.40;;
54201;SDS011;40108;53.152;5.844;2024-03-22T07:47:36;53.33;;;23.30;;
54201;SDS011;40108;53.152;5.844;2024-03-22T07:50:03;57.78;;;23.73;;
54201;SDS011;40108;53.152;5.844;2024-03-22T07:52:29;58.53;;;23.80;;
54201;SDS011;40108;53.152;5.844;2024-03-22T07:54:55;55.15;;;21.80;;
54201;SDS011;40108;53.152;5.844;2024-03-22T07:57:20;47.30;;;21.05;;
54201;SDS011;40108;53.152;5.844;2024-03-22T07:59:48;47.53;;;21.42;;
54201;SDS011;40108;53.152;5.844;2024-03-22T08:02:13;44.33;;;20.85;;
54201;SDS011;40108;53.152;5.844;2024-03-22T08:04:39;42.80;;;20.30;;
54201;SDS011;40108;53.152;5.844;2024-03-22T08:07:05;38.35;;;18.90;;
54201;SDS011;40108;53.152;5.844;2024-03-22T08:09:30;39.05;;;19.30;;
54201;SDS011;40108;53.152;5.844;2024-03-22T08:11:56;39.63;;;19.15;;
54201;SDS011;40108;53.152;5.844;2024-03-22T08:14:22;36.50;;;17.90;;
54201;SDS011;40108;53.152;5.844;2024-03-22T08:16:48;33.22;;;17.95;;
54201;SDS011;40108;53.152;5.844;2024-03-22T08:19:13;33.10;;;17.40;;
54201;SDS011;40108;53.152;5.844;2024-03-22T08:21:39;37.80;;;17.38;;
54201;SDS011;40108;53.152;5.844;2024-03-22T08:24:05;33.17;;;17.60;;
54201;SDS011;40108;53.152;5.844;2024-03-22T08:26:31;35.72;;;17.25;;
54201;SDS011;40108;53.152;5.844;2024-03-22T08:28:56;36.28;;;17.67;;
54201;SDS011;40108;53.152;5.844;2024-03-22T08:31:22;40.15;;;19.33;;
54201;SDS011;40108;53.152;5.844;2024-03-22T08:33:51;39.95;;;18.40;;
54201;SDS011;40108;53.152;5.844;2024-03-22T08:36:17;48.70;;;20.63;;
54201;SDS011;40108;53.152;5.844;2024-03-22T08:38:42;41.28;;;20.08;;
54201;SDS011;40108;53.152;5.844;2024-03-22T08:41:08;46.15;;;22.27;;
54201;SDS011;40108;53.152;5.844;2024-03-22T08:43:35;44.13;;;21.48;;
54201;SDS011;40108;53.152;5.844;2024-03-22T08:46:00;48.42;;;21.70;;
54201;SDS011;40108;53.152;5.844;2024-03-22T08:48:26;42.28;;;19.48;;
54201;SDS011;40108;53.152;5.844;2024-03-22T08:50:52;40.15;;;19.95;;
54201;SDS011;40108;53.152;5.844;2024-03-22T08:53:17;43.17;;;20.38;;
54201;SDS011;40108;53.152;5.844;2024-03-22T08:55:46;37.85;;;19.30;;
54201;SDS011;40108;53.152;5.844;2024-03-22T08:58:13;52.88;;;21.35;;
54201;SDS011;40108;53.152;5.844;2024-03-22T09:00:40;41.88;;;19.55;;
54201;SDS011;40108;53.152;5.844;2024-03-22T09:03:07;45.30;;;19.50;;
54201;SDS011;40108;53.152;5.844;2024-03-22T09:05:32;38.95;;;18.55;;
54201;SDS011;40108;53.152;5.844;2024-03-22T09:07:58;36.58;;;18.55;;
54201;SDS011;40108;53.152;5.844;2024-03-22T09:10:25;37.78;;;17.05;;
54201;SDS011;40108;53.152;5.844;2024-03-22T09:12:51;38.65;;;18.23;;
54201;SDS011;40108;53.152;5.844;2024-03-22T09:15:17;32.40;;;16.00;;
54201;SDS011;40108;53.152;5.844;2024-03-22T09:17:43;35.10;;;16.85;;
54201;SDS011;40108;53.152;5.844;2024-03-22T09:20:09;39.85;;;18.27;;
54201;SDS011;40108;53.152;5.844;2024-03-22T09:22:35;35.30;;;16.27;;
54201;SDS011;40108;53.152;5.844;2024-03-22T09:25:01;30.90;;;16.88;;
54201;SDS011;40108;53.152;5.844;2024-03-22T09:27:27;30.30;;;15.00;;
54201;SDS011;40108;53.152;5.844;2024-03-22T09:29:52;28.98;;;14.48;;
54201;SDS011;40108;53.152;5.844;2024-03-22T09:32:18;32.90;;;13.85;;
54201;SDS011;40108;53.152;5.844;2024-03-22T09:34:44;28.13;;;12.35;;
54201;SDS011;40108;53.152;5.844;2024-03-22T09:37:10;28.38;;;11.85;;
54201;SDS011;40108;53.152;5.844;2024-03-22T09:39:35;28.63;;;12.75;;
54201;SDS011;40108;53.152;5.844;2024-03-22T09:42:01;27.52;;;13.25;;
54201;SDS011;40108;53.152;5.844;2024-03-22T09:44:31;28.83;;;13.02;;
54201;SDS011;40108;53.152;5.844;2024-03-22T09:46:58;30.63;;;13.23;;
54201;SDS011;40108;53.152;5.844;2024-03-22T09:49:25;29.45;;;13.45;;
54201;SDS011;40108;53.152;5.844;2024-03-22T09:51:51;33.15;;;14.43;;
54201;SDS011;40108;53.152;5.844;2024-03-22T09:54:17;36.35;;;14.25;;
54201;SDS011;40108;53.152;5.844;2024-03-22T09:56:43;39.17;;;14.30;;
54201;SDS011;40108;53.152;5.844;2024-03-22T09:59:12;34.25;;;13.43;;
54201;SDS011;40108;53.152;5.844;2024-03-22T10:01:38;32.40;;;12.77;;
54201;SDS011;40108;53.152;5.844;2024-03-22T10:04:05;33.15;;;11.20;;
54201;SDS011;40108;53.152;5.844;2024-03-22T10:06:31;27.33;;;12.13;;
54201;SDS011;40108;53.152;5.844;2024-03-22T10:09:00;25.67;;;11.93;;
54201;SDS011;40108;53.152;5.844;2024-03-22T10:11:28;24.08;;;10.00;;
54201;SDS011;40108;53.152;5.844;2024-03-22T10:13:54;19.27;;;9.07;;
54201;SDS011;40108;53.152;5.844;2024-03-22T10:16:23;23.92;;;10.02;;
54201;SDS011;40108;53.152;5.844;2024-03-22T10:18:49;25.35;;;9.90;;
54201;SDS011;40108;53.152;5.844;2024-03-22T10:21:18;22.33;;;9.15;;
54201;SDS011;40108;53.152;5.844;2024-03-22T10:23:43;20.73;;;7.88;;
54201;SDS011;40108;53.152;5.844;2024-03-22T10:26:11;20.55;;;8.20;;
54201;SDS011;40108;53.152;5.844;2024-03-22T10:28:43;20.27;;;8.23;;
54201;SDS011;40108;53.152;5.844;2024-03-22T10:31:12;19.55;;;6.82;;
54201;SDS011;40108;53.152;5.844;2024-03-22T10:33:40;12.30;;;5.70;;
54201;SDS011;40108;53.152;5.844;2024-03-22T10:36:06;14.07;;;6.35;;
54201;SDS011;40108;53.152;5.844;2024-03-22T10:38:32;17.60;;;6.88;;
54201;SDS011;40108;53.152;5.844;2024-03-22T10:41:01;12.65;;;5.78;;
54201;SDS011;40108;53.152;5.844;2024-03-22T10:43:28;14.63;;;5.97;;
54201;SDS011;40108;53.152;5.844;2024-03-22T10:45:54;10.55;;;5.43;;
54201;SDS011;40108;53.152;5.844;2024-03-22T10:48:21;15.07;;;5.85;;
54201;SDS011;40108;53.152;5.844;2024-03-22T10:50:53;14.83;;;5.60;;
54201;SDS011;40108;53.152;5.844;2024-03-22T10:53:24;12.40;;;5.40;;
54201;SDS011;40108;53.152;5.844;2024-03-22T10:55:52;13.50;;;6.03;;
54201;SDS011;40108;53.152;5.844;2024-03-22T10:58:22;11.68;;;5.00;;
54201;SDS011;40108;53.152;5.844;2024-03-22T11:00:53;11.10;;;4.70;;
54201;SDS011;40108;53.152;5.844;2024-03-22T11:03:22;12.55;;;4.82;;
54201;SDS011;40108;53.152;5.844;2024-03-22T11:05:54;9.35;;;4.72;;
54201;SDS011;40108;53.152;5.844;2024-03-22T11:08:28;10.52;;;4.47;;
54201;SDS011;40108;53.152;5.844;2024-03-22T11:10:58;14.95;;;4.57;;
54201;SDS011;40108;53.152;5.844;2024-03-22T11:13:38;11.32;;;4.40;;
54201;SDS011;40108;53.152;5.844;2024-03-22T11:16:04;13.93;;;4.70;;
54201;SDS011;40108;53.152;5.844;2024-03-22T11:18:30;9.00;;;4.88;;
54201;SDS011;40108;53.152;5.844;2024-03-22T11:20:56;11.30;;;4.28;;
54201;SDS011;40108;53.152;5.844;2024-03-22T11:23:22;12.63;;;4.32;;
54201;SDS011;40108;53.152;5.844;2024-03-22T11:25:48;8.95;;;4.13;;
54201;SDS011;40108;53.152;5.844;2024-03-22T11:28:14;12.15;;;4.68;;
54201;SDS011;40108;53.152;5.844;2024-03-22T11:30:39;13.82;;;5.13;;
54201;SDS011;40108;53.152;5.844;2024-03-22T11:33:05;17.70;;;5.35;;
54201;SDS011;40108;53.152;5.844;2024-03-22T11:35:31;18.88;;;5.32;;
54201;SDS011;40108;53.152;5.844;2024-03-22T11:37:58;16.52;;;5.75;;
54201;SDS011;40108;53.152;5.844;2024-03-22T11:40:25;17.55;;;5.28;;
54201;SDS011;40108;53.152;5.844;2024-03-22T11:42:52;12.98;;;5.30;;
54201;SDS011;40108;53.152;5.844;2024-03-22T11:45:19;16.05;;;5.05;;
54201;SDS011;40108;53.152;5.844;2024-03-22T11:47:46;14.88;;;5.15;;
54201;SDS011;40108;53.152;5.844;2024-03-22T11:50:13;19.20;;;5.30;;
54201;SDS011;40108;53.152;5.844;2024-03-22T11:52:42;19.67;;;5.32;;
54201;SDS011;40108;53.152;5.844;2024-03-22T11:55:12;16.92;;;4.70;;
54201;SDS011;40108;53.152;5.844;2024-03-22T11:57:39;19.60;;;5.00;;
54201;SDS011;40108;53.152;5.844;2024-03-22T12:00:04;20.63;;;5.43;;
54201;SDS011;40108;53.152;5.844;2024-03-22T12:02:35;20.17;;;4.93;;
54201;SDS011;40108;53.152;5.844;2024-03-22T12:05:01;16.27;;;4.95;;
54201;SDS011;40108;53.152;5.844;2024-03-22T12:07:28;18.23;;;6.03;;
54201;SDS011;40108;53.152;5.844;2024-03-22T12:09:54;20.52;;;5.22;;
54201;SDS011;40108;53.152;5.844;2024-03-22T12:12:20;15.75;;;5.32;;
54201;SDS011;40108;53.152;5.844;2024-03-22T12:14:47;21.10;;;5.15;;
54201;SDS011;40108;53.152;5.844;2024-03-22T12:17:15;21.38;;;5.70;;
54201;SDS011;40108;53.152;5.844;2024-03-22T12:19:41;23.48;;;5.80;;
54201;SDS011;40108;53.152;5.844;2024-03-22T12:22:06;16.25;;;5.20;;
54201;SDS011;40108;53.152;5.844;2024-03-22T12:24:32;25.35;;;6.18;;
54201;SDS011;40108;53.152;5.844;2024-03-22T12:26:58;16.30;;;5.82;;
54201;SDS011;40108;53.152;5.844;2024-03-22T12:29:24;24.98;;;6.28;;
54201;SDS011;40108;53.152;5.844;2024-03-22T12:31:50;28.48;;;6.10;;
54201;SDS011;40108;53.152;5.844;2024-03-22T12:34:16;27.77;;;6.53;;
54201;SDS011;40108;53.152;5.844;2024-03-22T12:36:42;25.83;;;6.20;;
54201;SDS011;40108;53.152;5.844;2024-03-22T12:39:08;22.17;;;5.97;;
54201;SDS011;40108;53.152;5.844;2024-03-22T12:41:34;22.63;;;6.35;;
54201;SDS011;40108;53.152;5.844;2024-03-22T12:44:00;17.02;;;5.57;;
54201;SDS011;40108;53.152;5.844;2024-03-22T12:46:26;26.23;;;5.93;;
54201;SDS011;40108;53.152;5.844;2024-03-22T12:48:52;26.63;;;6.22;;
54201;SDS011;40108;53.152;5.844;2024-03-22T12:51:19;24.20;;;5.47;;
54201;SDS011;40108;53.152;5.844;2024-03-22T12:53:45;18.45;;;4.95;;
54201;SDS011;40108;53.152;5.844;2024-03-22T12:56:11;22.65;;;4.93;;
54201;SDS011;40108;53.152;5.844;2024-03-22T12:58:37;23.35;;;4.90;;
54201;SDS011;40108;53.152;5.844;2024-03-22T13:01:04;21.88;;;4.43;;
54201;SDS011;40108;53.152;5.844;2024-03-22T13:03:31;23.40;;;4.28;;
54201;SDS011;40108;53.152;5.844;2024-03-22T13:05:57;25.35;;;4.95;;
54201;SDS011;40108;53.152;5.844;2024-03-22T13:08:23;25.67;;;4.70;;
54201;SDS011;40108;53.152;5.844;2024-03-22T13:10:49;23.83;;;4.65;;
54201;SDS011;40108;53.152;5.844;2024-03-22T13:13:15;18.00;;;4.00;;
54201;SDS011;40108;53.152;5.844;2024-03-22T13:15:44;22.05;;;3.75;;
54201;SDS011;40108;53.152;5.844;2024-03-22T13:18:12;23.63;;;4.70;;
54201;SDS011;40108;53.152;5.844;2024-03-22T13:20:38;22.50;;;4.00;;
54201;SDS011;40108;53.152;5.844;2024-03-22T13:23:04;16.58;;;4.03;;
54201;SDS011;40108;53.152;5.844;2024-03-22T13:25:30;16.58;;;3.38;;
54201;SDS011;40108;53.152;5.844;2024-03-22T13:27:56;22.33;;;4.22;;
54201;SDS011;40108;53.152;5.844;2024-03-22T13:30:22;22.73;;;4.13;;
54201;SDS011;40108;53.152;5.844;2024-03-22T13:32:48;19.05;;;3.63;;
54201;SDS011;40108;53.152;5.844;2024-03-22T13:35:13;19.70;;;4.28;;
54201;SDS011;40108;53.152;5.844;2024-03-22T13:37:40;25.95;;;4.20;;
54201;SDS011;40108;53.152;5.844;2024-03-22T13:40:06;16.50;;;3.60;;
54201;SDS011;40108;53.152;5.844;2024-03-22T13:42:32;25.52;;;4.68;;
54201;SDS011;40108;53.152;5.844;2024-03-22T13:44:58;23.90;;;4.00;;
54201;SDS011;40108;53.152;5.844;2024-03-22T13:47:24;22.45;;;4.25;;
54201;SDS011;40108;53.152;5.844;2024-03-22T13:49:52;30.65;;;4.38;;
54201;SDS011;40108;53.152;5.844;2024-03-22T13:52:18;21.52;;;4.35;;
54201;SDS011;40108;53.152;5.844;2024-03-22T13:54:45;27.50;;;4.97;;
54201;SDS011;40108;53.152;5.844;2024-03-22T13:57:11;30.40;;;4.93;;
54201;SDS011;40108;53.152;5.844;2024-03-22T13:59:37;29.42;;;4.50;;
54201;SDS011;40108;53.152;5.844;2024-03-22T14:02:05;29.83;;;4.97;;
54201;SDS011;40108;53.152;5.844;2024-03-22T14:04:31;24.38;;;4.50;;
54201;SDS011;40108;53.152;5.844;2024-03-22T14:06:57;25.33;;;5.03;;
54201;SDS011;40108;53.152;5.844;2024-03-22T14:09:23;23.40;;;4.28;;
54201;SDS011;40108;53.152;5.844;2024-03-22T14:11:48;30.40;;;5.10;;
54201;SDS011;40108;53.152;5.844;2024-03-22T14:14:14;22.88;;;4.18;;
54201;SDS011;40108;53.152;5.844;2024-03-22T14:16:40;22.65;;;4.28;;
54201;SDS011;40108;53.152;5.844;2024-03-22T14:19:09;27.33;;;4.53;;